createdAt,value
2023-02-08T00:00:35.769Z,47.69
2023-02-08T00:01:39.804Z,45.93
2023-02-08T00:02:43.790Z,48.75
2023-02-08T00:03:48.575Z,46.69
2023-02-08T00:04:52.591Z,45.20
2023-02-08T00:05:56.500Z,42.40
2023-02-08T00:07:00.474Z,44.13
2023-02-08T00:08:04.558Z,45.50
2023-02-08T00:09:08.545Z,39.94
2023-02-08T00:10:12.938Z,43.06
2023-02-08T00:11:16.899Z,46.94
2023-02-08T00:12:20.820Z,47.73
2023-02-08T00:13:25.194Z,45.80
2023-02-08T00:14:29.227Z,49.67
2023-02-08T00:15:33.078Z,44.13
2023-02-08T00:16:36.995Z,41.40
2023-02-08T00:17:40.849Z,47.93
2023-02-08T00:18:44.709Z,48.40
2023-02-08T00:19:48.689Z,44.27
2023-02-08T00:20:52.758Z,45.87
2023-02-08T00:21:56.605Z,47.40
2023-02-08T00:23:00.457Z,48.87
2023-02-08T00:24:04.520Z,46.27
2023-02-08T00:25:09.023Z,51.13
2023-02-08T00:26:13.819Z,47.19
2023-02-08T00:27:18.274Z,45.80
2023-02-08T00:28:22.395Z,46.47
2023-02-08T00:29:26.521Z,47.73
2023-02-08T00:30:30.629Z,45.13
2023-02-08T00:31:34.669Z,44.13
2023-02-08T00:32:38.738Z,42.33
2023-02-08T00:33:42.750Z,47.53
2023-02-08T00:34:46.719Z,46.00
2023-02-08T00:35:50.837Z,43.31
2023-02-08T00:36:54.873Z,48.00
2023-02-08T00:37:58.902Z,47.38
2023-02-08T00:39:03.260Z,51.20
2023-02-08T00:40:07.960Z,44.20
2023-02-08T00:41:12.064Z,45.47
2023-02-08T00:42:16.091Z,49.67
2023-02-08T00:43:20.091Z,46.60
2023-02-08T00:44:24.123Z,41.75
2023-02-08T00:45:28.085Z,52.00
2023-02-08T00:46:32.097Z,46.67
2023-02-08T00:47:35.995Z,46.06
2023-02-08T00:48:39.946Z,52.27
2023-02-08T00:49:43.924Z,49.33
2023-02-08T00:51:01.960Z,54.80
2023-02-08T00:52:05.985Z,46.93
2023-02-08T00:53:09.928Z,51.27
2023-02-08T00:54:16.260Z,50.07
2023-02-08T00:55:20.366Z,49.33
2023-02-08T00:56:24.405Z,48.87
2023-02-08T00:57:28.446Z,52.67
2023-02-08T00:58:32.470Z,46.07
2023-02-08T00:59:36.414Z,48.40
2023-02-08T01:00:40.710Z,47.27
2023-02-08T01:01:44.943Z,49.47
2023-02-08T01:02:48.871Z,51.87
2023-02-08T01:03:52.898Z,55.67
2023-02-08T01:04:56.871Z,47.40
2023-02-08T01:06:07.081Z,50.80
2023-02-08T01:07:11.173Z,50.87
2023-02-08T01:08:15.662Z,46.40
2023-02-08T01:09:19.714Z,46.69
2023-02-08T01:10:23.761Z,50.07
2023-02-08T01:11:27.777Z,45.13
2023-02-08T01:12:31.797Z,48.07
2023-02-08T01:13:36.736Z,50.13
2023-02-08T01:14:41.320Z,46.27
2023-02-08T01:15:45.261Z,53.87
2023-02-08T01:16:49.651Z,44.81
2023-02-08T01:17:58.122Z,43.07
2023-02-08T01:19:03.957Z,51.13
2023-02-08T01:20:08.859Z,40.73
2023-02-08T01:21:15.647Z,47.33
2023-02-08T01:22:19.515Z,51.27
2023-02-08T01:23:23.434Z,47.60
2023-02-08T01:24:27.631Z,48.00
2023-02-08T01:25:31.742Z,48.56
2023-02-08T01:26:37.640Z,46.87
2023-02-08T01:27:41.733Z,43.87
2023-02-08T01:28:46.297Z,49.67
2023-02-08T01:29:50.258Z,48.47
2023-02-08T01:30:54.323Z,48.40
2023-02-08T01:31:58.337Z,41.13
2023-02-08T01:33:02.231Z,46.27
2023-02-08T01:34:07.656Z,49.27
2023-02-08T01:35:11.650Z,51.73
2023-02-08T01:36:16.284Z,45.60
2023-02-08T01:37:20.162Z,42.47
2023-02-08T01:38:24.013Z,51.73
2023-02-08T01:39:27.933Z,46.20
2023-02-08T01:40:31.968Z,52.94
2023-02-08T01:41:39.663Z,48.40
2023-02-08T01:42:43.636Z,51.94
2023-02-08T01:44:08.331Z,46.87
2023-02-08T01:45:18.045Z,50.56
2023-02-08T01:46:22.117Z,49.87
2023-02-08T01:47:26.754Z,48.56
2023-02-08T01:48:33.610Z,47.20
2023-02-08T01:49:38.312Z,45.40
2023-02-08T01:50:57.449Z,44.67
2023-02-08T01:52:04.341Z,51.13
2023-02-08T01:53:08.702Z,47.50
2023-02-08T01:54:14.967Z,46.40
2023-02-08T01:55:24.462Z,51.67
2023-02-08T01:56:31.403Z,48.53
2023-02-08T01:57:35.570Z,51.60
2023-02-08T01:58:42.506Z,48.38
2023-02-08T01:59:49.434Z,49.20
2023-02-08T02:00:53.806Z,43.94
2023-02-08T02:01:59.328Z,50.40
2023-02-08T02:03:04.945Z,50.63
2023-02-08T02:04:09.506Z,47.88
2023-02-08T02:05:14.530Z,50.07
2023-02-08T02:06:21.473Z,42.87
2023-02-08T02:07:28.501Z,45.67
2023-02-08T02:08:32.616Z,50.87
2023-02-08T02:09:42.326Z,48.13
2023-02-08T02:10:48.900Z,50.27
2023-02-08T02:11:56.566Z,47.93
2023-02-08T02:13:09.758Z,53.13
2023-02-08T02:14:13.962Z,48.44
2023-02-08T02:15:18.191Z,45.75
2023-02-08T02:16:22.223Z,51.60
2023-02-08T02:17:26.352Z,51.80
2023-02-08T02:18:34.247Z,48.87
2023-02-08T02:19:57.820Z,51.53
2023-02-08T02:21:40.862Z,48.19
2023-02-08T02:22:53.770Z,51.33
2023-02-08T02:24:23.008Z,45.33
2023-02-08T02:25:41.441Z,48.06
2023-02-08T02:27:07.591Z,40.69
2023-02-08T02:28:28.732Z,48.56
2023-02-08T02:29:52.029Z,49.33
2023-02-08T02:31:27.229Z,51.56
2023-02-08T02:32:34.180Z,52.07
2023-02-08T02:34:01.843Z,46.07
2023-02-08T02:35:17.546Z,55.07
2023-02-08T02:36:47.170Z,49.87
2023-02-08T02:37:56.755Z,53.40
2023-02-08T02:39:12.423Z,47.47
2023-02-08T02:42:07.951Z,55.73
2023-02-08T02:43:26.684Z,51.60
2023-02-08T02:44:49.630Z,49.31
2023-02-08T02:46:04.976Z,55.69
2023-02-08T02:47:26.857Z,53.40
2023-02-08T02:48:39.770Z,55.88
2023-02-08T02:49:49.495Z,58.00
2023-02-08T02:50:56.575Z,57.94
2023-02-08T02:52:06.158Z,61.13
2023-02-08T02:53:35.887Z,56.25
2023-02-08T02:54:47.966Z,59.50
2023-02-08T02:55:55.015Z,58.07
2023-02-08T02:57:01.983Z,52.40
2023-02-08T02:58:08.372Z,54.75
2023-02-08T02:59:14.658Z,49.25
2023-02-08T03:00:25.244Z,47.69
2023-02-08T03:01:29.390Z,54.87
2023-02-08T03:02:33.293Z,48.00
2023-02-08T03:03:37.553Z,52.80
2023-02-08T03:04:44.466Z,50.40
2023-02-08T03:05:50.068Z,49.88
2023-02-08T03:07:11.808Z,55.20
2023-02-08T03:08:33.528Z,53.00
2023-02-08T03:09:49.627Z,52.13
2023-02-08T03:11:05.290Z,55.81
2023-02-08T03:12:18.280Z,51.47
2023-02-08T03:13:43.478Z,47.50
2023-02-08T03:14:50.461Z,56.80
2023-02-08T03:16:09.065Z,56.13
2023-02-08T03:17:18.854Z,56.88
2023-02-08T03:18:25.825Z,49.27
2023-02-08T03:19:35.555Z,52.40
2023-02-08T03:20:45.295Z,54.07
2023-02-08T03:21:55.205Z,57.73
2023-02-08T03:23:04.770Z,53.13
2023-02-08T03:24:32.716Z,50.87
2023-02-08T03:25:39.627Z,52.13
2023-02-08T03:27:03.117Z,52.20
2023-02-08T03:28:10.178Z,53.87
2023-02-08T03:29:36.314Z,52.75
2023-02-08T03:30:43.695Z,51.73
2023-02-08T03:31:50.945Z,53.13
2023-02-08T03:33:00.735Z,51.73
2023-02-08T03:34:15.937Z,53.27
2023-02-08T03:35:31.824Z,55.60
2023-02-08T03:36:44.520Z,53.25
2023-02-08T03:39:09.390Z,55.20
2023-02-08T03:40:19.601Z,52.73
2023-02-08T03:41:29.177Z,56.13
2023-02-08T03:42:36.006Z,54.33
2023-02-08T03:43:45.464Z,56.13
2023-02-08T03:44:55.324Z,57.40
2023-02-08T03:46:23.295Z,55.38
2023-02-08T03:47:30.334Z,54.56
2023-02-08T03:48:37.457Z,55.56
2023-02-08T03:50:38.806Z,56.67
2023-02-08T03:51:03.219Z,65.00
2023-02-08T03:52:10.195Z,61.60
2023-02-08T03:53:17.254Z,54.87
2023-02-08T03:54:24.272Z,58.63
2023-02-08T03:55:31.346Z,53.67
2023-02-08T03:56:41.016Z,54.94
2023-02-08T03:57:47.943Z,57.13
2023-02-08T03:59:00.853Z,60.69
2023-02-08T04:00:10.884Z,58.67
2023-02-08T04:01:17.940Z,55.80
2023-02-08T04:02:24.397Z,51.93
2023-02-08T04:03:30.966Z,62.67
2023-02-08T04:04:38.355Z,57.13
2023-02-08T04:05:42.926Z,58.73
2023-02-08T04:06:47.230Z,60.67
2023-02-08T04:07:52.183Z,55.73
2023-02-08T04:08:56.132Z,57.87
2023-02-08T04:10:00.204Z,57.33
2023-02-08T04:11:04.287Z,61.20
2023-02-08T04:12:08.518Z,58.60
2023-02-08T04:13:12.491Z,54.69
2023-02-08T04:14:16.767Z,58.00
2023-02-08T04:15:20.717Z,60.13
2023-02-08T04:16:24.766Z,56.69
2023-02-08T04:17:28.663Z,50.73
2023-02-08T04:18:32.608Z,57.53
2023-02-08T04:19:36.531Z,60.93
2023-02-08T04:20:40.987Z,57.06
2023-02-08T04:21:45.138Z,51.53
2023-02-08T04:22:49.155Z,58.53
2023-02-08T04:23:53.193Z,53.53
2023-02-08T04:24:57.177Z,57.73
2023-02-08T04:26:01.153Z,55.60
2023-02-08T04:27:06.110Z,57.27
2023-02-08T04:28:10.270Z,57.19
2023-02-08T04:29:14.486Z,57.60
2023-02-08T04:30:18.830Z,54.56
2023-02-08T04:31:24.430Z,51.37
2023-02-08T04:32:28.582Z,62.27
2023-02-08T04:33:32.674Z,58.20
2023-02-08T04:34:36.542Z,56.33
2023-02-08T04:35:41.746Z,48.20
2023-02-08T04:36:45.862Z,53.75
2023-02-08T04:37:49.911Z,53.75
2023-02-08T04:38:54.035Z,56.80
2023-02-08T04:39:58.074Z,59.47
2023-02-08T04:41:02.090Z,56.87
2023-02-08T04:42:06.228Z,57.69
2023-02-08T04:43:10.281Z,54.27
2023-02-08T04:44:14.310Z,55.00
2023-02-08T04:45:18.576Z,59.93
2023-02-08T04:46:46.595Z,62.88
2023-02-08T04:47:50.564Z,59.07
2023-02-08T04:48:54.470Z,63.13
2023-02-08T04:49:58.418Z,89.00
2023-02-08T04:51:02.505Z,91.20
2023-02-08T04:52:06.413Z,74.00
2023-02-08T04:53:10.489Z,71.67
2023-02-08T04:54:14.330Z,85.73
2023-02-08T04:55:18.279Z,79.33
2023-02-08T04:56:22.256Z,69.20
2023-02-08T04:57:26.198Z,64.73
2023-02-08T04:58:30.024Z,65.80
2023-02-08T04:59:33.958Z,63.80
2023-02-08T05:00:40.037Z,64.67
2023-02-08T05:01:44.213Z,61.80
2023-02-08T05:02:48.139Z,62.07
2023-02-08T05:03:52.095Z,60.69
2023-02-08T05:04:56.019Z,63.60
2023-02-08T05:06:02.040Z,60.07
2023-02-08T05:07:06.029Z,62.53
2023-02-08T05:08:09.951Z,56.80
2023-02-08T05:09:13.830Z,60.80
2023-02-08T05:10:18.768Z,59.75
2023-02-08T05:11:24.784Z,57.60
2023-02-08T05:12:28.717Z,60.33
2023-02-08T05:13:32.692Z,60.73
2023-02-08T05:14:36.679Z,57.80
2023-02-08T05:15:42.243Z,56.63
2023-02-08T05:16:47.816Z,61.44
2023-02-08T05:17:51.798Z,60.40
2023-02-08T05:18:58.876Z,62.75
2023-02-08T05:20:03.713Z,60.47
2023-02-08T05:21:08.397Z,61.20
2023-02-08T05:22:18.299Z,63.53
2023-02-08T05:23:22.401Z,66.13
2023-02-08T05:24:26.352Z,65.40
2023-02-08T05:25:31.890Z,63.33
2023-02-08T05:26:39.166Z,62.73
2023-02-08T05:27:43.086Z,63.87
2023-02-08T05:28:47.061Z,63.47
2023-02-08T05:29:50.987Z,60.53
2023-02-08T05:30:55.181Z,64.07
2023-02-08T05:31:59.299Z,64.33
2023-02-08T05:33:03.229Z,67.00
2023-02-08T05:34:07.245Z,59.47
2023-02-08T05:35:11.207Z,61.07
2023-02-08T05:36:15.208Z,63.00
2023-02-08T05:37:19.161Z,63.38
2023-02-08T05:38:23.007Z,62.13
2023-02-08T05:39:26.866Z,55.73
2023-02-08T05:40:30.961Z,63.00
2023-02-08T05:41:34.872Z,62.00
2023-02-08T05:42:38.892Z,58.93
2023-02-08T05:43:42.996Z,60.00
2023-02-08T05:44:47.008Z,57.87
2023-02-08T05:45:51.694Z,61.80
2023-02-08T05:46:55.626Z,57.13
2023-02-08T05:47:59.609Z,58.53
2023-02-08T05:49:04.107Z,59.67
2023-02-08T05:50:08.556Z,61.80
2023-02-08T05:51:12.468Z,59.80
2023-02-08T05:52:16.378Z,61.53
2023-02-08T05:53:21.370Z,59.67
2023-02-08T05:54:26.521Z,59.47
2023-02-08T05:55:30.518Z,62.20
2023-02-08T05:56:34.524Z,52.81
2023-02-08T05:57:38.480Z,64.80
2023-02-08T05:58:42.495Z,59.00
2023-02-08T05:59:46.483Z,59.27
2023-02-08T06:00:50.565Z,63.73
2023-02-08T06:01:54.520Z,60.53
2023-02-08T06:02:59.118Z,61.33
2023-02-08T06:04:03.337Z,60.47
2023-02-08T06:05:07.865Z,59.93
2023-02-08T06:06:12.385Z,55.27
2023-02-08T06:07:16.650Z,57.93
2023-02-08T06:08:20.520Z,62.87
2023-02-08T06:09:24.552Z,66.13
2023-02-08T06:10:28.558Z,62.80
2023-02-08T06:11:32.452Z,62.19
2023-02-08T06:12:36.420Z,61.27
2023-02-08T06:13:40.453Z,58.00
2023-02-08T06:14:44.425Z,66.62
2023-02-08T06:15:48.382Z,62.40
2023-02-08T06:16:52.403Z,65.87
2023-02-08T06:17:56.763Z,62.40
2023-02-08T06:19:00.929Z,63.53
2023-02-08T06:20:05.656Z,57.40
2023-02-08T06:21:13.593Z,58.19
2023-02-08T06:22:19.157Z,63.73
2023-02-08T06:23:23.940Z,61.27
2023-02-08T06:24:28.070Z,62.00
2023-02-08T06:25:32.171Z,58.27
2023-02-08T06:26:36.241Z,62.53
2023-02-08T06:27:40.212Z,63.93
2023-02-08T06:28:44.102Z,53.67
2023-02-08T06:29:48.126Z,66.47
2023-02-08T06:30:52.931Z,64.20
2023-02-08T06:31:57.064Z,61.00
2023-02-08T06:33:01.135Z,58.93
2023-02-08T06:34:08.161Z,55.53
2023-02-08T06:35:12.970Z,64.50
2023-02-08T06:36:18.869Z,69.40
2023-02-08T06:37:23.009Z,58.47
2023-02-08T06:38:27.077Z,66.87
2023-02-08T06:39:31.033Z,63.33
2023-02-08T06:40:35.057Z,63.13
2023-02-08T06:41:38.969Z,55.50
2023-02-08T06:42:43.011Z,59.81
2023-02-08T06:43:47.077Z,62.00
2023-02-08T06:44:55.168Z,61.47
2023-02-08T06:45:56.841Z,59.00
2023-02-08T06:47:00.960Z,60.07
2023-02-08T06:48:05.203Z,61.40
2023-02-08T06:49:09.190Z,55.07
2023-02-08T06:50:13.291Z,57.25
2023-02-08T06:51:17.266Z,55.38
2023-02-08T06:52:22.059Z,58.06
2023-02-08T06:53:26.025Z,60.87
2023-02-08T06:54:30.067Z,43.27
2023-02-08T06:55:34.155Z,56.93
2023-02-08T06:56:38.276Z,57.00
2023-02-08T06:57:42.397Z,60.00
2023-02-08T06:58:46.415Z,59.13
2023-02-08T06:59:50.384Z,51.88
2023-02-08T07:00:54.461Z,62.53
2023-02-08T07:02:01.108Z,60.75
2023-02-08T07:03:04.132Z,54.38
2023-02-08T07:04:08.154Z,60.12
2023-02-08T07:05:12.216Z,56.47
2023-02-08T07:06:19.677Z,55.53
2023-02-08T07:07:23.732Z,57.20
2023-02-08T07:08:27.731Z,62.53
2023-02-08T07:09:33.271Z,55.88
2023-02-08T07:10:40.123Z,49.07
2023-02-08T07:11:44.788Z,54.44
2023-02-08T07:12:48.709Z,56.69
2023-02-08T07:13:53.203Z,57.62
2023-02-08T07:14:57.127Z,46.33
2023-02-08T07:16:01.170Z,61.69
2023-02-08T07:17:05.850Z,57.44
2023-02-08T07:18:09.823Z,55.94
2023-02-08T07:19:13.752Z,57.33
2023-02-08T07:20:17.997Z,54.00
2023-02-08T07:21:22.033Z,55.20
2023-02-08T07:22:25.961Z,53.13
2023-02-08T07:23:29.825Z,57.13
2023-02-08T07:24:35.055Z,55.38
2023-02-08T07:25:38.998Z,51.00
2023-02-08T07:26:43.045Z,57.73
2023-02-08T07:27:46.918Z,54.13
2023-02-08T07:28:50.873Z,60.63
2023-02-08T07:29:55.037Z,59.00
2023-02-08T07:30:59.162Z,62.38
2023-02-08T07:32:06.724Z,57.56
2023-02-08T07:33:10.677Z,57.80
2023-02-08T07:34:14.688Z,56.44
2023-02-08T07:35:20.739Z,56.07
2023-02-08T07:36:24.374Z,60.25
2023-02-08T07:37:28.666Z,55.56
2023-02-08T07:38:34.190Z,57.47
2023-02-08T07:39:39.674Z,53.47
2023-02-08T07:40:43.864Z,57.44
2023-02-08T07:41:48.617Z,56.63
2023-02-08T07:42:53.981Z,51.93
2023-02-08T07:43:59.802Z,58.13
2023-02-08T07:45:05.760Z,54.93
2023-02-08T07:46:13.052Z,49.73
2023-02-08T07:47:21.068Z,58.06
2023-02-08T07:48:30.901Z,59.19
2023-02-08T07:49:49.360Z,57.19
2023-02-08T07:50:45.234Z,57.87
2023-02-08T07:51:49.530Z,56.19
2023-02-08T07:52:53.544Z,54.13
2023-02-08T07:53:59.349Z,59.94
2023-02-08T07:55:08.205Z,52.87
2023-02-08T07:56:14.488Z,59.81
2023-02-08T07:57:20.984Z,56.47
2023-02-08T07:58:24.713Z,56.50
2023-02-08T07:59:36.261Z,58.50
2023-02-08T08:00:42.386Z,56.69
2023-02-08T08:01:52.568Z,56.07
2023-02-08T08:02:56.836Z,58.69
2023-02-08T08:04:02.015Z,58.47
2023-02-08T08:05:06.308Z,54.81
2023-02-08T08:06:11.926Z,54.25
2023-02-08T08:07:18.718Z,57.13
2023-02-08T08:08:24.237Z,59.38
2023-02-08T08:09:28.387Z,31.53
2023-02-08T08:10:34.192Z,55.63
2023-02-08T08:11:39.703Z,56.19
2023-02-08T08:12:45.265Z,56.37
2023-02-08T08:13:52.643Z,54.33
2023-02-08T08:15:09.105Z,53.27
2023-02-08T08:16:11.577Z,53.50
2023-02-08T08:17:18.233Z,50.31
2023-02-08T08:18:38.481Z,53.56
2023-02-08T08:19:32.788Z,56.87
2023-02-08T08:20:40.896Z,53.44
2023-02-08T08:21:45.575Z,54.69
2023-02-08T08:22:49.600Z,54.93
2023-02-08T08:23:53.580Z,53.33
2023-02-08T08:24:59.037Z,56.67
2023-02-08T08:26:15.206Z,58.47
2023-02-08T08:27:21.251Z,50.13
2023-02-08T08:28:25.131Z,59.60
2023-02-08T08:29:31.286Z,58.44
2023-02-08T08:30:38.626Z,56.13
2023-02-08T08:31:44.406Z,55.40
2023-02-08T08:32:48.780Z,58.69
2023-02-08T08:34:01.112Z,58.80
2023-02-08T08:35:15.611Z,54.31
2023-02-08T08:36:21.301Z,56.69
2023-02-08T08:37:26.686Z,55.07
2023-02-08T08:38:30.856Z,53.73
2023-02-08T08:39:36.572Z,53.44
2023-02-08T08:40:42.469Z,59.47
2023-02-08T08:41:48.520Z,55.20
2023-02-08T08:42:55.000Z,55.13
2023-02-08T08:44:01.150Z,53.47
2023-02-08T08:45:05.193Z,54.63
2023-02-08T08:46:10.188Z,55.00
2023-02-08T08:47:18.376Z,56.80
2023-02-08T08:48:21.471Z,50.93
2023-02-08T08:49:27.451Z,54.75
2023-02-08T08:50:31.802Z,54.53
2023-02-08T08:51:35.922Z,54.63
2023-02-08T08:52:39.890Z,52.31
2023-02-08T08:53:45.573Z,51.88
2023-02-08T08:54:49.807Z,51.00
2023-02-08T08:55:53.827Z,53.56
2023-02-08T08:56:57.992Z,52.20
2023-02-08T08:58:03.548Z,45.56
2023-02-08T08:59:10.051Z,51.53
2023-02-08T09:00:20.405Z,46.88
2023-02-08T09:01:24.863Z,50.80
2023-02-08T09:02:29.004Z,49.69
2023-02-08T09:03:33.214Z,49.69
2023-02-08T09:04:37.456Z,45.27
2023-02-08T09:05:43.116Z,48.07
2023-02-08T09:06:47.331Z,49.44
2023-02-08T09:07:51.394Z,48.06
2023-02-08T09:08:55.426Z,51.56
2023-02-08T09:09:59.355Z,53.60
2023-02-08T09:11:12.600Z,50.06
2023-02-08T09:12:18.258Z,49.87
2023-02-08T09:13:23.964Z,45.25
2023-02-08T09:14:28.336Z,51.00
2023-02-08T09:15:34.121Z,49.44
2023-02-08T09:16:45.918Z,57.56
2023-02-08T09:17:51.503Z,42.50
2023-02-08T09:18:58.835Z,46.81
2023-02-08T09:20:04.961Z,49.73
2023-02-08T09:21:14.210Z,48.87
2023-02-08T09:22:21.588Z,47.25
2023-02-08T09:23:25.916Z,43.27
2023-02-08T09:24:30.005Z,47.31
2023-02-08T09:25:34.029Z,43.87
2023-02-08T09:26:39.005Z,38.00
2023-02-08T09:27:46.139Z,44.19
2023-02-08T09:28:50.350Z,46.00
2023-02-08T09:29:54.413Z,44.93
2023-02-08T09:31:00.228Z,35.63
2023-02-08T09:32:04.505Z,49.50
2023-02-08T09:33:08.847Z,48.25
2023-02-08T09:34:17.754Z,46.13
2023-02-08T09:35:23.168Z,34.06
2023-02-08T09:36:31.947Z,35.94
2023-02-08T09:37:42.020Z,46.00
2023-02-08T09:38:52.108Z,49.50
2023-02-08T09:40:08.732Z,48.94
2023-02-08T09:41:24.509Z,45.56
2023-02-08T09:42:44.745Z,46.06
2023-02-08T09:44:09.522Z,52.19
2023-02-08T09:45:28.137Z,49.69
2023-02-08T09:46:36.349Z,45.06
2023-02-08T09:47:57.703Z,44.25
2023-02-08T09:49:06.127Z,48.93
2023-02-08T09:50:38.618Z,47.87
2023-02-08T09:51:45.819Z,52.00
2023-02-08T09:53:13.812Z,46.25
2023-02-08T09:54:35.606Z,45.56
2023-02-08T09:55:42.510Z,43.60
2023-02-08T09:56:51.015Z,43.00
2023-02-08T09:57:59.331Z,46.44
2023-02-08T09:59:03.573Z,46.75
2023-02-08T10:02:27.337Z,51.00
2023-02-08T10:03:34.485Z,42.80
2023-02-08T10:04:44.614Z,38.19
2023-02-08T10:05:48.690Z,46.60
2023-02-08T10:06:52.941Z,40.00
2023-02-08T10:07:57.271Z,57.00
2023-02-08T10:09:04.309Z,60.50
2023-02-08T10:10:14.647Z,53.13
2023-02-08T10:11:32.073Z,53.27
2023-02-08T10:12:56.944Z,71.13
2023-02-08T10:14:10.295Z,52.25
2023-02-08T10:15:35.098Z,50.94
2023-02-08T10:16:51.077Z,43.40
2023-02-08T10:18:04.023Z,43.63
2023-02-08T10:19:16.574Z,44.94
2023-02-08T10:20:44.878Z,40.94
2023-02-08T10:22:00.944Z,39.88
2023-02-08T10:23:28.414Z,45.44
2023-02-08T10:24:47.201Z,45.00
2023-02-08T10:26:03.481Z,53.13
2023-02-08T10:27:20.229Z,53.40
2023-02-08T10:28:30.628Z,48.06
2023-02-08T10:30:02.992Z,45.12
2023-02-08T10:31:18.916Z,49.75
2023-02-08T10:32:37.773Z,45.13
2023-02-08T10:33:44.830Z,39.19
2023-02-08T10:34:56.618Z,45.94
2023-02-08T10:36:00.386Z,40.31
2023-02-08T10:37:19.248Z,45.00
2023-02-08T10:38:45.277Z,41.88
2023-02-08T10:39:39.890Z,45.40
2023-02-08T10:40:45.438Z,39.63
2023-02-08T10:41:52.654Z,39.25
2023-02-08T10:43:02.891Z,32.69
2023-02-08T10:44:18.893Z,34.13
2023-02-08T10:45:31.634Z,39.06
2023-02-08T10:46:50.434Z,34.63
2023-02-08T10:47:59.310Z,38.50
2023-02-08T10:49:18.573Z,40.06
2023-02-08T10:50:37.996Z,36.27
2023-02-08T10:51:43.009Z,32.13
2023-02-08T10:52:50.633Z,33.13
2023-02-08T10:53:56.033Z,30.44
2023-02-08T10:55:02.148Z,34.44
2023-02-08T10:56:06.676Z,40.63
2023-02-08T10:57:23.052Z,37.56
2023-02-08T10:58:27.379Z,38.40
2023-02-08T10:59:51.304Z,25.81
2023-02-08T11:00:56.569Z,27.75
2023-02-08T11:02:00.767Z,36.19
2023-02-08T11:03:10.581Z,31.25
2023-02-08T11:04:16.099Z,36.50
2023-02-08T11:05:23.072Z,34.56
2023-02-08T11:06:28.249Z,37.00
2023-02-08T11:07:36.071Z,34.81
2023-02-08T11:08:42.371Z,37.00
2023-02-08T11:09:46.596Z,23.19
2023-02-08T11:11:02.780Z,30.00
2023-02-08T11:12:08.453Z,25.88
2023-02-08T11:13:20.879Z,38.47
2023-02-08T11:14:40.972Z,26.56
2023-02-08T11:15:56.924Z,21.69
2023-02-08T11:17:01.322Z,30.06
2023-02-08T11:18:08.620Z,28.94
2023-02-08T11:19:21.273Z,27.00
2023-02-08T11:20:32.489Z,23.69
2023-02-08T11:21:39.611Z,27.81
2023-02-08T11:22:46.189Z,28.94
2023-02-08T11:23:53.041Z,36.06
2023-02-08T11:25:05.007Z,27.06
2023-02-08T11:26:27.184Z,30.56
2023-02-08T11:27:38.977Z,37.31
2023-02-08T11:28:43.868Z,38.75
2023-02-08T11:29:47.969Z,39.00
2023-02-08T11:31:00.883Z,38.94
2023-02-08T11:32:17.138Z,38.63
2023-02-08T11:33:21.300Z,39.56
2023-02-08T11:34:29.895Z,41.75
2023-02-08T11:35:34.158Z,28.25
2023-02-08T11:36:46.912Z,36.56
2023-02-08T11:37:58.075Z,33.75
2023-02-08T11:39:21.247Z,37.94
2023-02-08T11:40:39.920Z,43.56
2023-02-08T11:41:49.434Z,41.25
2023-02-08T11:42:54.644Z,41.25
2023-02-08T11:44:06.755Z,33.60
2023-02-08T11:45:24.229Z,35.88
2023-02-08T11:46:31.429Z,42.19
2023-02-08T11:47:39.780Z,35.94
2023-02-08T11:48:52.434Z,35.63
2023-02-08T11:49:59.732Z,37.75
2023-02-08T11:51:04.756Z,43.13
2023-02-08T11:53:48.362Z,36.81
2023-02-08T11:54:53.841Z,45.63
2023-02-08T11:56:18.837Z,43.56
2023-02-08T11:57:27.272Z,35.00
2023-02-08T11:58:32.350Z,41.53
2023-02-08T11:59:36.580Z,38.75
2023-02-08T12:00:41.721Z,41.80
2023-02-08T12:01:45.896Z,35.19
2023-02-08T12:02:51.458Z,41.50
2023-02-08T12:03:58.358Z,41.27
2023-02-08T12:05:03.299Z,37.19
2023-02-08T12:06:27.308Z,37.06
2023-02-08T12:07:39.717Z,36.47
2023-02-08T12:09:09.206Z,34.25
2023-02-08T12:10:38.063Z,35.44
2023-02-08T12:11:48.759Z,36.93
2023-02-08T12:12:55.830Z,35.63
2023-02-08T12:14:02.855Z,32.50
2023-02-08T12:15:45.028Z,38.31
2023-02-08T12:16:53.645Z,40.06
2023-02-08T12:18:06.468Z,33.19
2023-02-08T12:20:48.723Z,33.00
2023-02-08T12:21:55.684Z,32.44
2023-02-08T12:23:08.739Z,35.75
2023-02-08T12:24:24.351Z,42.53
2023-02-08T12:25:36.788Z,40.12
2023-02-08T12:27:01.596Z,35.67
2023-02-08T12:28:17.397Z,29.00
2023-02-08T12:29:24.410Z,35.88
2023-02-08T12:30:43.917Z,37.94
2023-02-08T12:31:59.795Z,35.94
2023-02-08T12:33:23.487Z,36.47
2023-02-08T12:35:07.040Z,31.44
2023-02-08T12:36:14.385Z,34.50
2023-02-08T12:37:27.479Z,33.88
2023-02-08T12:38:40.289Z,32.25
2023-02-08T12:39:55.888Z,31.87
2023-02-08T12:41:23.731Z,35.93
2023-02-08T12:42:36.388Z,36.20
2023-02-08T12:43:52.153Z,30.50
2023-02-08T12:45:02.120Z,39.75
2023-02-08T12:46:09.415Z,32.60
2023-02-08T12:47:22.171Z,33.75
2023-02-08T12:48:45.374Z,32.75
2023-02-08T12:50:04.473Z,29.00
2023-02-08T12:51:11.491Z,24.81
2023-02-08T12:52:24.639Z,32.69
2023-02-08T12:53:31.632Z,29.87
2023-02-08T12:54:55.082Z,30.19
2023-02-08T12:56:02.176Z,30.88
2023-02-08T12:57:07.636Z,32.31
2023-02-08T12:58:26.543Z,29.50
2023-02-08T12:59:36.302Z,30.94
2023-02-08T13:00:43.718Z,29.73
2023-02-08T13:01:50.470Z,34.63
2023-02-08T13:03:03.535Z,33.69
2023-02-08T13:04:13.370Z,31.87
2023-02-08T13:05:20.611Z,33.13
2023-02-08T13:06:27.913Z,33.87
2023-02-08T13:07:38.189Z,29.69
2023-02-08T13:08:59.381Z,28.87
2023-02-08T13:10:09.263Z,30.56
2023-02-08T13:11:20.281Z,30.75
2023-02-08T13:12:30.626Z,29.00
2023-02-08T13:13:37.663Z,35.56
2023-02-08T13:14:44.734Z,30.06
2023-02-08T13:16:10.060Z,30.75
2023-02-08T13:17:26.659Z,29.44
2023-02-08T13:18:39.501Z,29.50
2023-02-08T13:19:58.130Z,33.50
2023-02-08T13:20:57.946Z,24.94
2023-02-08T13:22:05.049Z,25.00
2023-02-08T13:23:33.416Z,38.25
2023-02-08T13:24:44.075Z,30.75
2023-02-08T13:25:50.918Z,30.19
2023-02-08T13:26:55.010Z,29.50
2023-02-08T13:28:04.575Z,31.44
2023-02-08T13:29:11.734Z,37.31
2023-02-08T13:30:22.574Z,36.38
2023-02-08T13:31:35.630Z,35.31
2023-02-08T13:32:45.528Z,34.25
2023-02-08T13:34:04.415Z,23.33
2023-02-08T13:35:23.140Z,34.06
2023-02-08T13:36:32.875Z,35.33
2023-02-08T13:37:37.482Z,35.56
2023-02-08T13:38:44.917Z,33.00
2023-02-08T13:39:49.720Z,34.00
2023-02-08T13:41:08.485Z,35.69
2023-02-08T13:42:30.375Z,36.94
2023-02-08T13:43:46.074Z,35.88
2023-02-08T13:44:53.204Z,38.81
2023-02-08T13:46:00.185Z,32.88
2023-02-08T13:47:07.609Z,37.50
2023-02-08T13:48:17.281Z,41.33
2023-02-08T13:49:43.920Z,39.47
2023-02-08T13:50:52.716Z,44.06
2023-02-08T13:51:56.687Z,45.81
2023-02-08T13:53:01.714Z,50.80
2023-02-08T13:54:11.498Z,42.94
2023-02-08T13:55:33.588Z,37.06
2023-02-08T13:56:46.937Z,43.31
2023-02-08T13:57:56.035Z,44.88
2023-02-08T13:59:01.544Z,44.00
2023-02-08T14:00:24.092Z,40.20
2023-02-08T14:01:30.901Z,42.40
2023-02-08T14:02:34.873Z,37.44
2023-02-08T14:03:38.921Z,37.38
2023-02-08T14:04:44.651Z,36.94
2023-02-08T14:06:00.637Z,42.87
2023-02-08T14:07:13.553Z,41.40
2023-02-08T14:08:26.390Z,35.75
2023-02-08T14:09:51.142Z,47.88
2023-02-08T14:11:06.884Z,48.81
2023-02-08T14:12:22.630Z,37.60
2023-02-08T14:13:35.503Z,50.00
2023-02-08T14:14:40.192Z,46.81
2023-02-08T14:15:45.159Z,35.13
2023-02-08T14:17:11.830Z,38.00
2023-02-08T14:18:24.605Z,42.69
2023-02-08T14:19:28.688Z,37.56
2023-02-08T14:20:35.650Z,44.50
2023-02-08T14:21:45.348Z,40.56
2023-02-08T14:22:54.850Z,38.19
2023-02-08T14:24:07.646Z,43.63
2023-02-08T14:25:23.474Z,42.75
2023-02-08T14:26:30.107Z,35.88
2023-02-08T14:27:40.012Z,36.93
2023-02-08T14:28:46.726Z,43.75
2023-02-08T14:30:05.540Z,42.07
2023-02-08T14:31:12.705Z,41.75
2023-02-08T14:32:28.046Z,35.73
2023-02-08T14:33:37.851Z,45.44
2023-02-08T14:34:42.237Z,43.38
2023-02-08T14:35:51.673Z,51.07
2023-02-08T14:37:20.179Z,45.75
2023-02-08T14:38:27.069Z,44.50
2023-02-08T14:39:33.968Z,49.31
2023-02-08T14:40:58.213Z,50.93
2023-02-08T14:42:06.919Z,54.25
2023-02-08T14:43:24.210Z,52.50
2023-02-08T14:44:45.445Z,55.67
2023-02-08T14:45:52.149Z,58.20
2023-02-08T14:46:56.190Z,56.88
2023-02-08T14:48:06.257Z,51.00
2023-02-08T14:49:18.044Z,50.19